map of CBG home
CBG - Airport
Location
City:  Cambridge, Cambridgeshire, England, United Kingdom
ICAO:EGSC
IATA:CBG

Details
Type:Airport (Aerodrome, Airfield)
Use:Public/Civil
Latitude:5212'18"N (52.205000)
Longitude:010'30"E (0.175000)
Datum:WGS 1984
Elevation:47 ft (14 m)
Variation:0.43W (WMM2015 magnetic declination)
0.15 annual change
Runways:3
Longest:6447 × 151 ft (1965 × 46 m), paved

Time
Time Zone:UTC+0 (DST+1)
Local Time:

Weather
METAR:EGSC 241550Z 27005KT CAVOK 06/01 Q1012

Related Locations
Nearby:
Farthest:CHT: 11830 mi / 19039 km
Waitangi [Tuuta], CIT, NZ

Find:

   beyond  
but within

Other Information
Maps:
NOTAMs:
Links:
Sources:

  
flag of United Kingdom
flag of England
  

Sectional Chart

Flight Planning
at skyvector.com

Satellite Image

Google Maps Satellite view

 

Copyright © 2004-2017 Karl L. Swartz. All rights reserved.
The Great Circle Mapper name and logo are trademarks of the Great Circle Mapper.
All other trademarks mentioned herein belong to their respective owners.
Please see credits for attibutions and further copyright information.

  Follow gcmap on Facebook Follow gcmap on Twitter Follow gcmap on Google+ GCmap on LinkedIn

hCard Microformat

Geo Microformat